sensor_id;sensor_type;location;lat;lon;timestamp;temperature;humidity
43607;DHT22;29197;44.788;10.366;2023-04-08T00:00:45;12.30;99.90
43607;DHT22;29197;44.788;10.366;2023-04-08T00:03:35;12.20;99.90
43607;DHT22;29197;44.788;10.366;2023-04-08T00:06:24;12.00;99.90
43607;DHT22;29197;44.788;10.366;2023-04-08T00:09:13;11.50;99.90
43607;DHT22;29197;44.788;10.366;2023-04-08T00:12:01;11.60;99.90
43607;DHT22;29197;44.788;10.366;2023-04-08T00:14:50;11.50;99.90
43607;DHT22;29197;44.788;10.366;2023-04-08T00:17:38;11.70;99.90
43607;DHT22;29197;44.788;10.366;2023-04-08T00:20:29;11.90;99.90
43607;DHT22;29197;44.788;10.366;2023-04-08T00:23:17;11.90;99.90
43607;DHT22;29197;44.788;10.366;2023-04-08T00:26:07;11.80;99.90
43607;DHT22;29197;44.788;10.366;2023-04-08T00:28:55;11.80;99.90
43607;DHT22;29197;44.788;10.366;2023-04-08T00:31:44;11.90;99.90
43607;DHT22;29197;44.788;10.366;2023-04-08T00:34:32;11.90;99.90
43607;DHT22;29197;44.788;10.366;2023-04-08T00:40:11;12.20;99.90
43607;DHT22;29197;44.788;10.366;2023-04-08T00:43:00;11.70;99.90
43607;DHT22;29197;44.788;10.366;2023-04-08T00:45:48;11.80;99.90
43607;DHT22;29197;44.788;10.366;2023-04-08T00:48:37;11.80;99.90
43607;DHT22;29197;44.788;10.366;2023-04-08T00:51:26;12.00;99.90
43607;DHT22;29197;44.788;10.366;2023-04-08T00:54:15;12.20;99.90
43607;DHT22;29197;44.788;10.366;2023-04-08T00:57:04;12.30;99.90
43607;DHT22;29197;44.788;10.366;2023-04-08T00:59:53;12.30;99.90
43607;DHT22;29197;44.788;10.366;2023-04-08T01:02:45;12.60;99.90
43607;DHT22;29197;44.788;10.366;2023-04-08T01:05:41;12.40;99.90
43607;DHT22;29197;44.788;10.366;2023-04-08T01:08:34;12.30;99.90
43607;DHT22;29197;44.788;10.366;2023-04-08T01:11:26;12.30;99.90
43607;DHT22;29197;44.788;10.366;2023-04-08T01:14:20;12.30;99.90
43607;DHT22;29197;44.788;10.366;2023-04-08T01:17:09;12.10;99.90
43607;DHT22;29197;44.788;10.366;2023-04-08T01:19:59;12.30;99.90
43607;DHT22;29197;44.788;10.366;2023-04-08T01:23:17;12.40;99.90
43607;DHT22;29197;44.788;10.366;2023-04-08T01:29:01;11.90;99.90
43607;DHT22;29197;44.788;10.366;2023-04-08T01:31:51;12.10;99.90
43607;DHT22;29197;44.788;10.366;2023-04-08T01:34:41;12.00;99.90
43607;DHT22;29197;44.788;10.366;2023-04-08T01:37:30;12.20;99.90
43607;DHT22;29197;44.788;10.366;2023-04-08T01:40:20;13.10;99.90
43607;DHT22;29197;44.788;10.366;2023-04-08T01:43:12;12.30;99.90
43607;DHT22;29197;44.788;10.366;2023-04-08T01:46:01;12.10;99.90
43607;DHT22;29197;44.788;10.366;2023-04-08T01:48:50;12.00;99.90
43607;DHT22;29197;44.788;10.366;2023-04-08T01:51:40;12.10;99.90
43607;DHT22;29197;44.788;10.366;2023-04-08T01:54:28;12.00;99.90
43607;DHT22;29197;44.788;10.366;2023-04-08T01:57:22;12.10;99.90
43607;DHT22;29197;44.788;10.366;2023-04-08T02:00:13;12.10;99.90
43607;DHT22;29197;44.788;10.366;2023-04-08T02:03:04;12.20;99.90
43607;DHT22;29197;44.788;10.366;2023-04-08T02:05:54;12.20;99.90
43607;DHT22;29197;44.788;10.366;2023-04-08T02:08:42;12.30;99.90
43607;DHT22;29197;44.788;10.366;2023-04-08T02:11:32;12.40;99.90
43607;DHT22;29197;44.788;10.366;2023-04-08T02:14:20;12.50;99.90
43607;DHT22;29197;44.788;10.366;2023-04-08T02:17:13;12.50;99.90
43607;DHT22;29197;44.788;10.366;2023-04-08T02:20:05;12.50;99.90
43607;DHT22;29197;44.788;10.366;2023-04-08T02:22:58;12.50;99.90
43607;DHT22;29197;44.788;10.366;2023-04-08T02:25:49;12.50;99.90
43607;DHT22;29197;44.788;10.366;2023-04-08T02:28:40;12.50;99.90
43607;DHT22;29197;44.788;10.366;2023-04-08T02:31:29;12.50;99.90
43607;DHT22;29197;44.788;10.366;2023-04-08T02:34:19;12.30;99.90
43607;DHT22;29197;44.788;10.366;2023-04-08T02:37:09;12.30;99.90
43607;DHT22;29197;44.788;10.366;2023-04-08T02:39:58;12.30;99.90
43607;DHT22;29197;44.788;10.366;2023-04-08T02:42:47;12.20;99.90
43607;DHT22;29197;44.788;10.366;2023-04-08T02:45:39;12.20;99.90
43607;DHT22;29197;44.788;10.366;2023-04-08T02:48:28;12.30;99.90
43607;DHT22;29197;44.788;10.366;2023-04-08T02:51:18;12.30;99.90
43607;DHT22;29197;44.788;10.366;2023-04-08T02:54:07;12.20;99.90
43607;DHT22;29197;44.788;10.366;2023-04-08T02:56:56;12.20;99.90
43607;DHT22;29197;44.788;10.366;2023-04-08T02:59:44;12.10;99.90
43607;DHT22;29197;44.788;10.366;2023-04-08T03:02:33;12.10;99.90
43607;DHT22;29197;44.788;10.366;2023-04-08T03:05:21;12.10;99.90
43607;DHT22;29197;44.788;10.366;2023-04-08T03:08:11;12.00;99.90
43607;DHT22;29197;44.788;10.366;2023-04-08T03:13:49;11.80;99.90
43607;DHT22;29197;44.788;10.366;2023-04-08T03:16:37;11.90;99.90
43607;DHT22;29197;44.788;10.366;2023-04-08T03:19:25;12.00;99.90
43607;DHT22;29197;44.788;10.366;2023-04-08T03:22:14;11.70;99.90
43607;DHT22;29197;44.788;10.366;2023-04-08T03:25:05;11.90;99.90
43607;DHT22;29197;44.788;10.366;2023-04-08T03:27:53;12.00;99.90
43607;DHT22;29197;44.788;10.366;2023-04-08T03:30:42;12.10;99.90
43607;DHT22;29197;44.788;10.366;2023-04-08T03:33:31;12.10;99.90
43607;DHT22;29197;44.788;10.366;2023-04-08T03:36:19;12.20;99.90
43607;DHT22;29197;44.788;10.366;2023-04-08T03:39:08;12.00;99.90
43607;DHT22;29197;44.788;10.366;2023-04-08T03:41:58;12.00;99.90
43607;DHT22;29197;44.788;10.366;2023-04-08T03:44:47;11.80;99.90
43607;DHT22;29197;44.788;10.366;2023-04-08T03:47:35;11.90;99.90
43607;DHT22;29197;44.788;10.366;2023-04-08T03:50:24;11.80;99.90
43607;DHT22;29197;44.788;10.366;2023-04-08T03:53:12;11.80;99.90
43607;DHT22;29197;44.788;10.366;2023-04-08T03:56:01;11.90;99.90
43607;DHT22;29197;44.788;10.366;2023-04-08T03:58:52;12.00;99.90
43607;DHT22;29197;44.788;10.366;2023-04-08T04:01:40;13.10;99.90
43607;DHT22;29197;44.788;10.366;2023-04-08T04:04:28;11.90;99.90
43607;DHT22;29197;44.788;10.366;2023-04-08T04:07:17;11.90;99.90
43607;DHT22;29197;44.788;10.366;2023-04-08T04:10:07;11.90;99.90
43607;DHT22;29197;44.788;10.366;2023-04-08T04:12:56;11.70;99.90
43607;DHT22;29197;44.788;10.366;2023-04-08T04:15:46;11.50;99.90
43607;DHT22;29197;44.788;10.366;2023-04-08T04:18:34;11.50;99.90
43607;DHT22;29197;44.788;10.366;2023-04-08T04:21:23;11.70;99.90
43607;DHT22;29197;44.788;10.366;2023-04-08T04:24:11;11.80;99.90
43607;DHT22;29197;44.788;10.366;2023-04-08T04:27:00;12.00;99.90
43607;DHT22;29197;44.788;10.366;2023-04-08T04:29:49;12.00;99.90
43607;DHT22;29197;44.788;10.366;2023-04-08T04:32:39;12.00;99.90
43607;DHT22;29197;44.788;10.366;2023-04-08T04:35:27;12.00;99.90
43607;DHT22;29197;44.788;10.366;2023-04-08T04:38:16;11.80;99.90
43607;DHT22;29197;44.788;10.366;2023-04-08T04:41:04;11.90;99.90
43607;DHT22;29197;44.788;10.366;2023-04-08T04:43:53;12.00;99.90
43607;DHT22;29197;44.788;10.366;2023-04-08T04:46:41;12.10;99.90
43607;DHT22;29197;44.788;10.366;2023-04-08T04:49:31;12.10;99.90
43607;DHT22;29197;44.788;10.366;2023-04-08T04:52:19;12.10;99.90
43607;DHT22;29197;44.788;10.366;2023-04-08T04:55:08;12.00;99.90
43607;DHT22;29197;44.788;10.366;2023-04-08T04:57:57;12.00;99.90
43607;DHT22;29197;44.788;10.366;2023-04-08T05:00:46;11.90;99.90
43607;DHT22;29197;44.788;10.366;2023-04-08T05:03:34;11.90;99.90
43607;DHT22;29197;44.788;10.366;2023-04-08T05:06:24;11.90;99.90
43607;DHT22;29197;44.788;10.366;2023-04-08T05:09:13;11.70;99.90
43607;DHT22;29197;44.788;10.366;2023-04-08T05:12:02;11.30;99.90
43607;DHT22;29197;44.788;10.366;2023-04-08T05:14:50;11.10;99.90
43607;DHT22;29197;44.788;10.366;2023-04-08T05:17:39;11.30;99.90
43607;DHT22;29197;44.788;10.366;2023-04-08T05:20:27;11.60;99.90
43607;DHT22;29197;44.788;10.366;2023-04-08T05:23:18;11.70;99.90
43607;DHT22;29197;44.788;10.366;2023-04-08T05:26:06;11.80;99.90
43607;DHT22;29197;44.788;10.366;2023-04-08T05:28:55;11.90;99.90
43607;DHT22;29197;44.788;10.366;2023-04-08T05:31:44;12.00;99.90
43607;DHT22;29197;44.788;10.366;2023-04-08T05:34:33;12.00;99.90
43607;DHT22;29197;44.788;10.366;2023-04-08T05:37:21;12.00;99.90
43607;DHT22;29197;44.788;10.366;2023-04-08T05:40:11;12.10;99.90
43607;DHT22;29197;44.788;10.366;2023-04-08T05:43:00;12.10;99.90
43607;DHT22;29197;44.788;10.366;2023-04-08T05:45:48;12.20;99.90
43607;DHT22;29197;44.788;10.366;2023-04-08T05:48:37;12.20;99.90
43607;DHT22;29197;44.788;10.366;2023-04-08T05:51:25;12.20;99.90
43607;DHT22;29197;44.788;10.366;2023-04-08T05:54:14;12.30;99.90
43607;DHT22;29197;44.788;10.366;2023-04-08T05:57:04;12.30;99.90
43607;DHT22;29197;44.788;10.366;2023-04-08T05:59:55;12.30;99.90
43607;DHT22;29197;44.788;10.366;2023-04-08T06:02:43;12.30;99.90
43607;DHT22;29197;44.788;10.366;2023-04-08T06:05:32;12.40;99.90
43607;DHT22;29197;44.788;10.366;2023-04-08T06:08:21;12.40;99.90
43607;DHT22;29197;44.788;10.366;2023-04-08T06:11:09;12.50;99.90
43607;DHT22;29197;44.788;10.366;2023-04-08T06:13:59;12.50;99.90
43607;DHT22;29197;44.788;10.366;2023-04-08T06:16:48;12.30;99.90
43607;DHT22;29197;44.788;10.366;2023-04-08T06:19:36;12.10;99.90
43607;DHT22;29197;44.788;10.366;2023-04-08T06:22:25;12.20;99.90
43607;DHT22;29197;44.788;10.366;2023-04-08T06:25:13;12.40;99.90
43607;DHT22;29197;44.788;10.366;2023-04-08T06:28:02;12.40;99.90
43607;DHT22;29197;44.788;10.366;2023-04-08T06:30:51;12.40;99.90
43607;DHT22;29197;44.788;10.366;2023-04-08T06:33:40;12.60;99.90
43607;DHT22;29197;44.788;10.366;2023-04-08T06:36:28;12.70;99.90
43607;DHT22;29197;44.788;10.366;2023-04-08T06:39:17;12.50;99.90
43607;DHT22;29197;44.788;10.366;2023-04-08T06:42:07;12.50;99.90
43607;DHT22;29197;44.788;10.366;2023-04-08T06:44:56;12.60;99.90
43607;DHT22;29197;44.788;10.366;2023-04-08T06:47:46;12.70;99.90
43607;DHT22;29197;44.788;10.366;2023-04-08T06:50:34;12.70;99.90
43607;DHT22;29197;44.788;10.366;2023-04-08T06:53:23;12.80;99.90
43607;DHT22;29197;44.788;10.366;2023-04-08T06:56:11;12.80;99.90
43607;DHT22;29197;44.788;10.366;2023-04-08T06:59:00;12.80;99.90
43607;DHT22;29197;44.788;10.366;2023-04-08T07:01:49;12.80;99.90
43607;DHT22;29197;44.788;10.366;2023-04-08T07:04:39;12.90;99.90
43607;DHT22;29197;44.788;10.366;2023-04-08T07:07:27;12.90;99.90
43607;DHT22;29197;44.788;10.366;2023-04-08T07:10:16;13.00;99.90
43607;DHT22;29197;44.788;10.366;2023-04-08T07:13:04;13.20;99.90
43607;DHT22;29197;44.788;10.366;2023-04-08T07:15:53;13.20;99.90
43607;DHT22;29197;44.788;10.366;2023-04-08T07:18:41;13.20;99.90
43607;DHT22;29197;44.788;10.366;2023-04-08T07:21:31;13.20;99.90
43607;DHT22;29197;44.788;10.366;2023-04-08T07:24:20;13.30;99.90
43607;DHT22;29197;44.788;10.366;2023-04-08T07:27:08;13.40;99.90
43607;DHT22;29197;44.788;10.366;2023-04-08T07:29:57;13.40;99.90
43607;DHT22;29197;44.788;10.366;2023-04-08T07:32:45;13.60;99.90
43607;DHT22;29197;44.788;10.366;2023-04-08T07:35:34;13.40;99.90
43607;DHT22;29197;44.788;10.366;2023-04-08T07:38:24;13.40;99.90
43607;DHT22;29197;44.788;10.366;2023-04-08T07:41:12;13.60;99.90
43607;DHT22;29197;44.788;10.366;2023-04-08T07:44:01;14.00;99.90
43607;DHT22;29197;44.788;10.366;2023-04-08T07:46:49;14.20;99.90
43607;DHT22;29197;44.788;10.366;2023-04-08T07:49:38;14.20;99.90
43607;DHT22;29197;44.788;10.366;2023-04-08T07:52:26;14.40;99.90
43607;DHT22;29197;44.788;10.366;2023-04-08T07:55:16;14.50;99.90
43607;DHT22;29197;44.788;10.366;2023-04-08T07:58:05;14.50;99.90
43607;DHT22;29197;44.788;10.366;2023-04-08T08:00:53;14.50;99.90
43607;DHT22;29197;44.788;10.366;2023-04-08T08:03:43;14.30;99.90
43607;DHT22;29197;44.788;10.366;2023-04-08T08:06:32;14.50;99.90
43607;DHT22;29197;44.788;10.366;2023-04-08T08:09:20;14.50;99.90
43607;DHT22;29197;44.788;10.366;2023-04-08T08:12:10;14.70;99.90
43607;DHT22;29197;44.788;10.366;2023-04-08T08:14:59;14.80;99.90
43607;DHT22;29197;44.788;10.366;2023-04-08T08:17:47;15.00;99.90
43607;DHT22;29197;44.788;10.366;2023-04-08T08:20:36;15.10;99.90
43607;DHT22;29197;44.788;10.366;2023-04-08T08:23:24;15.20;99.90
43607;DHT22;29197;44.788;10.366;2023-04-08T08:26:13;15.30;99.90
43607;DHT22;29197;44.788;10.366;2023-04-08T08:29:03;15.30;99.90
43607;DHT22;29197;44.788;10.366;2023-04-08T08:31:52;15.40;99.90
43607;DHT22;29197;44.788;10.366;2023-04-08T08:34:40;15.50;99.90
43607;DHT22;29197;44.788;10.366;2023-04-08T08:37:29;15.50;99.90
43607;DHT22;29197;44.788;10.366;2023-04-08T08:43:06;15.30;99.90
43607;DHT22;29197;44.788;10.366;2023-04-08T08:45:56;15.20;99.90
43607;DHT22;29197;44.788;10.366;2023-04-08T08:48:45;15.30;99.90
43607;DHT22;29197;44.788;10.366;2023-04-08T08:51:34;15.50;99.90
43607;DHT22;29197;44.788;10.366;2023-04-08T08:54:23;15.70;99.90
43607;DHT22;29197;44.788;10.366;2023-04-08T08:57:21;15.80;99.90
43607;DHT22;29197;44.788;10.366;2023-04-08T09:00:10;15.90;99.90
43607;DHT22;29197;44.788;10.366;2023-04-08T09:03:20;15.90;99.90
43607;DHT22;29197;44.788;10.366;2023-04-08T09:06:09;16.00;99.90
43607;DHT22;29197;44.788;10.366;2023-04-08T09:08:58;16.10;99.90
43607;DHT22;29197;44.788;10.366;2023-04-08T09:11:48;16.20;99.90
43607;DHT22;29197;44.788;10.366;2023-04-08T09:14:37;16.40;99.90
43607;DHT22;29197;44.788;10.366;2023-04-08T09:17:32;16.40;99.90
43607;DHT22;29197;44.788;10.366;2023-04-08T09:20:23;16.50;99.90
43607;DHT22;29197;44.788;10.366;2023-04-08T09:23:11;16.50;99.90
43607;DHT22;29197;44.788;10.366;2023-04-08T09:26:06;16.50;99.90
43607;DHT22;29197;44.788;10.366;2023-04-08T09:28:59;16.60;99.90
43607;DHT22;29197;44.788;10.366;2023-04-08T09:34:49;16.50;99.90
43607;DHT22;29197;44.788;10.366;2023-04-08T09:40:29;16.50;99.90
43607;DHT22;29197;44.788;10.366;2023-04-08T09:43:22;16.60;99.90
43607;DHT22;29197;44.788;10.366;2023-04-08T09:46:12;16.70;99.90
43607;DHT22;29197;44.788;10.366;2023-04-08T09:49:04;16.80;99.90
43607;DHT22;29197;44.788;10.366;2023-04-08T09:51:59;16.90;99.90
43607;DHT22;29197;44.788;10.366;2023-04-08T09:54:58;17.00;99.90
43607;DHT22;29197;44.788;10.366;2023-04-08T09:57:51;17.10;99.90
43607;DHT22;29197;44.788;10.366;2023-04-08T10:00:46;16.90;99.90
43607;DHT22;29197;44.788;10.366;2023-04-08T10:03:39;16.90;99.90
43607;DHT22;29197;44.788;10.366;2023-04-08T10:06:33;16.90;99.90
43607;DHT22;29197;44.788;10.366;2023-04-08T10:09:23;17.10;99.90
43607;DHT22;29197;44.788;10.366;2023-04-08T10:12:13;17.40;99.90
43607;DHT22;29197;44.788;10.366;2023-04-08T10:15:26;17.60;99.90
43607;DHT22;29197;44.788;10.366;2023-04-08T10:18:35;17.60;99.90
43607;DHT22;29197;44.788;10.366;2023-04-08T10:21:39;17.80;99.90
43607;DHT22;29197;44.788;10.366;2023-04-08T10:24:29;18.00;99.90
43607;DHT22;29197;44.788;10.366;2023-04-08T10:27:38;18.10;99.90
43607;DHT22;29197;44.788;10.366;2023-04-08T10:30:40;18.30;99.90
43607;DHT22;29197;44.788;10.366;2023-04-08T10:33:32;18.30;99.90
43607;DHT22;29197;44.788;10.366;2023-04-08T10:36:25;18.40;99.90
43607;DHT22;29197;44.788;10.366;2023-04-08T10:39:14;18.50;99.90
43607;DHT22;29197;44.788;10.366;2023-04-08T10:42:03;18.70;99.90
43607;DHT22;29197;44.788;10.366;2023-04-08T10:45:01;18.70;99.90
43607;DHT22;29197;44.788;10.366;2023-04-08T10:50:38;18.90;99.90
43607;DHT22;29197;44.788;10.366;2023-04-08T10:53:28;18.90;99.90
43607;DHT22;29197;44.788;10.366;2023-04-08T10:56:16;19.10;99.90
43607;DHT22;29197;44.788;10.366;2023-04-08T10:59:05;19.20;99.90
43607;DHT22;29197;44.788;10.366;2023-04-08T11:04:44;19.40;99.90
43607;DHT22;29197;44.788;10.366;2023-04-08T11:07:39;19.50;99.90
43607;DHT22;29197;44.788;10.366;2023-04-08T11:10:29;19.50;99.90
43607;DHT22;29197;44.788;10.366;2023-04-08T11:16:07;19.90;99.90
43607;DHT22;29197;44.788;10.366;2023-04-08T11:19:06;19.90;99.90
43607;DHT22;29197;44.788;10.366;2023-04-08T11:21:55;20.10;99.90
43607;DHT22;29197;44.788;10.366;2023-04-08T11:24:43;20.40;99.90
43607;DHT22;29197;44.788;10.366;2023-04-08T11:27:32;20.40;99.90
43607;DHT22;29197;44.788;10.366;2023-04-08T11:30:22;20.60;99.90
43607;DHT22;29197;44.788;10.366;2023-04-08T11:33:12;20.70;99.20
43607;DHT22;29197;44.788;10.366;2023-04-08T11:36:03;20.90;99.90
43607;DHT22;29197;44.788;10.366;2023-04-08T11:38:53;21.10;98.20
43607;DHT22;29197;44.788;10.366;2023-04-08T11:41:41;21.30;99.90
43607;DHT22;29197;44.788;10.366;2023-04-08T11:44:31;21.50;98.60
43607;DHT22;29197;44.788;10.366;2023-04-08T11:47:19;21.60;98.60
43607;DHT22;29197;44.788;10.366;2023-04-08T11:50:08;21.70;98.10
43607;DHT22;29197;44.788;10.366;2023-04-08T11:52:58;21.80;97.70
43607;DHT22;29197;44.788;10.366;2023-04-08T11:55:47;21.70;96.50
43607;DHT22;29197;44.788;10.366;2023-04-08T11:58:36;22.10;99.90
43607;DHT22;29197;44.788;10.366;2023-04-08T12:04:14;22.50;93.70
43607;DHT22;29197;44.788;10.366;2023-04-08T12:07:03;22.60;92.80
43607;DHT22;29197;44.788;10.366;2023-04-08T12:09:52;22.70;92.40
43607;DHT22;29197;44.788;10.366;2023-04-08T12:12:41;22.90;92.90
43607;DHT22;29197;44.788;10.366;2023-04-08T12:15:30;23.00;93.20
43607;DHT22;29197;44.788;10.366;2023-04-08T12:18:18;23.30;92.10
43607;DHT22;29197;44.788;10.366;2023-04-08T12:21:07;23.30;91.00
43607;DHT22;29197;44.788;10.366;2023-04-08T12:23:55;23.20;91.00
43607;DHT22;29197;44.788;10.366;2023-04-08T12:26:45;23.10;90.40
43607;DHT22;29197;44.788;10.366;2023-04-08T12:29:34;23.10;91.00
43607;DHT22;29197;44.788;10.366;2023-04-08T12:32:22;23.10;90.20
43607;DHT22;29197;44.788;10.366;2023-04-08T12:35:11;23.20;90.00
43607;DHT22;29197;44.788;10.366;2023-04-08T12:38:01;23.30;91.40
43607;DHT22;29197;44.788;10.366;2023-04-08T12:40:49;23.30;91.30
43607;DHT22;29197;44.788;10.366;2023-04-08T12:43:39;23.50;91.20
43607;DHT22;29197;44.788;10.366;2023-04-08T12:46:28;23.50;90.80
43607;DHT22;29197;44.788;10.366;2023-04-08T12:49:16;23.30;90.30
43607;DHT22;29197;44.788;10.366;2023-04-08T12:52:05;23.20;90.80
43607;DHT22;29197;44.788;10.366;2023-04-08T12:54:53;23.30;90.70
43607;DHT22;29197;44.788;10.366;2023-04-08T12:57:42;23.40;90.60
43607;DHT22;29197;44.788;10.366;2023-04-08T13:00:32;23.40;91.00
43607;DHT22;29197;44.788;10.366;2023-04-08T13:03:20;23.40;90.20
43607;DHT22;29197;44.788;10.366;2023-04-08T13:17:25;23.30;90.60
43607;DHT22;29197;44.788;10.366;2023-04-08T13:20:14;23.30;90.50
43607;DHT22;29197;44.788;10.366;2023-04-08T13:23:03;23.30;89.30
43607;DHT22;29197;44.788;10.366;2023-04-08T13:25:51;22.90;88.00
43607;DHT22;29197;44.788;10.366;2023-04-08T13:28:40;22.80;89.30
43607;DHT22;29197;44.788;10.366;2023-04-08T13:31:43;23.00;89.60
43607;DHT22;29197;44.788;10.366;2023-04-08T13:34:33;22.90;88.00
43607;DHT22;29197;44.788;10.366;2023-04-08T13:37:22;23.00;89.30
43607;DHT22;29197;44.788;10.366;2023-04-08T13:40:10;23.10;89.50
43607;DHT22;29197;44.788;10.366;2023-04-08T13:42:59;23.20;90.10
43607;DHT22;29197;44.788;10.366;2023-04-08T13:45:48;23.40;89.20
43607;DHT22;29197;44.788;10.366;2023-04-08T13:48:36;23.50;86.90
43607;DHT22;29197;44.788;10.366;2023-04-08T13:51:26;23.50;86.70
43607;DHT22;29197;44.788;10.366;2023-04-08T13:54:15;23.40;87.20
43607;DHT22;29197;44.788;10.366;2023-04-08T13:57:03;23.50;87.20
43607;DHT22;29197;44.788;10.366;2023-04-08T14:02:40;23.90;85.30
43607;DHT22;29197;44.788;10.366;2023-04-08T14:05:29;23.90;85.80
43607;DHT22;29197;44.788;10.366;2023-04-08T14:08:19;23.90;85.80
43607;DHT22;29197;44.788;10.366;2023-04-08T14:11:11;23.70;84.80
43607;DHT22;29197;44.788;10.366;2023-04-08T14:14:00;23.00;82.30
43607;DHT22;29197;44.788;10.366;2023-04-08T14:16:48;22.50;83.90
43607;DHT22;29197;44.788;10.366;2023-04-08T14:19:37;22.10;84.60
43607;DHT22;29197;44.788;10.366;2023-04-08T14:22:25;21.80;84.90
43607;DHT22;29197;44.788;10.366;2023-04-08T14:25:15;21.10;85.40
43607;DHT22;29197;44.788;10.366;2023-04-08T14:42:10;21.40;86.40
43607;DHT22;29197;44.788;10.366;2023-04-08T14:44:58;21.50;86.80
43607;DHT22;29197;44.788;10.366;2023-04-08T14:47:47;21.80;86.80
43607;DHT22;29197;44.788;10.366;2023-04-08T14:50:36;22.00;86.20
43607;DHT22;29197;44.788;10.366;2023-04-08T14:53:24;22.20;85.50
43607;DHT22;29197;44.788;10.366;2023-04-08T14:56:13;22.30;85.80
43607;DHT22;29197;44.788;10.366;2023-04-08T14:59:03;22.10;84.60
43607;DHT22;29197;44.788;10.366;2023-04-08T15:01:52;21.80;85.90
43607;DHT22;29197;44.788;10.366;2023-04-08T15:04:40;21.60;87.20
43607;DHT22;29197;44.788;10.366;2023-04-08T15:07:29;21.30;87.60
43607;DHT22;29197;44.788;10.366;2023-04-08T15:10:18;21.20;87.00
43607;DHT22;29197;44.788;10.366;2023-04-08T15:13:06;20.90;86.70
43607;DHT22;29197;44.788;10.366;2023-04-08T15:15:56;20.80;87.90
43607;DHT22;29197;44.788;10.366;2023-04-08T15:21:33;21.00;87.50
43607;DHT22;29197;44.788;10.366;2023-04-08T15:24:22;21.00;88.20
43607;DHT22;29197;44.788;10.366;2023-04-08T15:27:10;21.00;88.30
43607;DHT22;29197;44.788;10.366;2023-04-08T15:29:59;21.00;88.70
43607;DHT22;29197;44.788;10.366;2023-04-08T15:32:49;21.10;88.30
43607;DHT22;29197;44.788;10.366;2023-04-08T15:35:38;21.00;88.60
43607;DHT22;29197;44.788;10.366;2023-04-08T15:38:27;20.80;88.50
43607;DHT22;29197;44.788;10.366;2023-04-08T15:41:15;20.80;89.00
43607;DHT22;29197;44.788;10.366;2023-04-08T15:44:05;20.60;89.20
43607;DHT22;29197;44.788;10.366;2023-04-08T15:46:53;20.50;89.80
43607;DHT22;29197;44.788;10.366;2023-04-08T15:52:33;20.40;87.70
43607;DHT22;29197;44.788;10.366;2023-04-08T15:55:21;20.50;89.00
43607;DHT22;29197;44.788;10.366;2023-04-08T15:58:10;20.40;88.90
43607;DHT22;29197;44.788;10.366;2023-04-08T16:00:58;20.30;88.50
43607;DHT22;29197;44.788;10.366;2023-04-08T16:03:47;20.20;89.80
43607;DHT22;29197;44.788;10.366;2023-04-08T16:06:37;20.20;90.40
43607;DHT22;29197;44.788;10.366;2023-04-08T16:09:25;20.10;91.10
43607;DHT22;29197;44.788;10.366;2023-04-08T16:12:14;20.10;91.10
43607;DHT22;29197;44.788;10.366;2023-04-08T16:15:03;20.10;91.60
43607;DHT22;29197;44.788;10.366;2023-04-08T16:17:51;20.10;91.20
43607;DHT22;29197;44.788;10.366;2023-04-08T16:20:40;20.00;91.20
43607;DHT22;29197;44.788;10.366;2023-04-08T16:23:30;20.00;91.30
43607;DHT22;29197;44.788;10.366;2023-04-08T16:26:20;20.00;91.70
43607;DHT22;29197;44.788;10.366;2023-04-08T16:29:10;19.90;92.00
43607;DHT22;29197;44.788;10.366;2023-04-08T16:31:58;19.80;91.90
43607;DHT22;29197;44.788;10.366;2023-04-08T16:34:47;18.50;91.70
43607;DHT22;29197;44.788;10.366;2023-04-08T16:37:36;19.70;92.40
43607;DHT22;29197;44.788;10.366;2023-04-08T16:40:25;19.60;92.60
43607;DHT22;29197;44.788;10.366;2023-04-08T16:43:14;19.60;92.80
43607;DHT22;29197;44.788;10.366;2023-04-08T16:46:09;19.60;92.90
43607;DHT22;29197;44.788;10.366;2023-04-08T16:48:58;19.50;93.10
43607;DHT22;29197;44.788;10.366;2023-04-08T16:51:47;19.50;93.80
43607;DHT22;29197;44.788;10.366;2023-04-08T16:54:35;19.40;94.40
43607;DHT22;29197;44.788;10.366;2023-04-08T16:57:25;19.30;94.90
43607;DHT22;29197;44.788;10.366;2023-04-08T17:00:14;19.20;99.50
43607;DHT22;29197;44.788;10.366;2023-04-08T17:03:07;19.10;95.30
43607;DHT22;29197;44.788;10.366;2023-04-08T17:06:04;19.00;95.90
43607;DHT22;29197;44.788;10.366;2023-04-08T17:11:42;18.70;95.90
43607;DHT22;29197;44.788;10.366;2023-04-08T17:14:32;18.70;96.70
43607;DHT22;29197;44.788;10.366;2023-04-08T17:17:20;18.70;96.90
43607;DHT22;29197;44.788;10.366;2023-04-08T17:20:10;18.70;97.00
43607;DHT22;29197;44.788;10.366;2023-04-08T17:22:59;18.60;97.10
43607;DHT22;29197;44.788;10.366;2023-04-08T17:25:47;18.60;97.20
43607;DHT22;29197;44.788;10.366;2023-04-08T17:28:36;18.50;97.40
43607;DHT22;29197;44.788;10.366;2023-04-08T17:31:26;18.50;97.60
43607;DHT22;29197;44.788;10.366;2023-04-08T17:34:14;18.50;97.70
43607;DHT22;29197;44.788;10.366;2023-04-08T18:41:56;17.80;99.90
43607;DHT22;29197;44.788;10.366;2023-04-08T18:44:44;17.70;99.90
43607;DHT22;29197;44.788;10.366;2023-04-08T18:47:33;17.50;99.90
43607;DHT22;29197;44.788;10.366;2023-04-08T18:50:22;17.20;99.90
43607;DHT22;29197;44.788;10.366;2023-04-08T18:53:11;17.00;99.90
43607;DHT22;29197;44.788;10.366;2023-04-08T18:56:01;16.90;99.90
43607;DHT22;29197;44.788;10.366;2023-04-08T18:58:50;16.80;99.90
43607;DHT22;29197;44.788;10.366;2023-04-08T19:01:41;16.70;99.90
43607;DHT22;29197;44.788;10.366;2023-04-08T19:04:30;16.70;99.90
43607;DHT22;29197;44.788;10.366;2023-04-08T19:07:19;16.60;99.90
43607;DHT22;29197;44.788;10.366;2023-04-08T19:10:08;16.50;99.90
43607;DHT22;29197;44.788;10.366;2023-04-08T19:12:58;16.40;99.90
43607;DHT22;29197;44.788;10.366;2023-04-08T19:15:47;16.40;99.90
43607;DHT22;29197;44.788;10.366;2023-04-08T19:18:36;16.40;99.90
43607;DHT22;29197;44.788;10.366;2023-04-08T19:21:24;16.30;99.90
43607;DHT22;29197;44.788;10.366;2023-04-08T19:24:13;16.30;99.90
43607;DHT22;29197;44.788;10.366;2023-04-08T19:27:02;16.30;99.90
43607;DHT22;29197;44.788;10.366;2023-04-08T19:29:51;16.30;99.90
43607;DHT22;29197;44.788;10.366;2023-04-08T19:32:40;16.30;99.90
43607;DHT22;29197;44.788;10.366;2023-04-08T19:35:29;16.20;99.90
43607;DHT22;29197;44.788;10.366;2023-04-08T19:38:17;16.10;99.90
43607;DHT22;29197;44.788;10.366;2023-04-08T19:41:06;16.20;99.90
43607;DHT22;29197;44.788;10.366;2023-04-08T19:43:54;16.20;99.90